Latest Weather Observations for Broome

IDW60801

Issued at 7:32 pm WST Tuesday 9 February 2016 (issued every 30 minutes, with the page automatically refreshed every 10 minutes)

About weather observations | Map of weather stations | Latest weather observations for WA | Other Formats
Station Details ID: 003003 Name: BROOME AIRPORT Lat: -17.95 Lon: 122.24 Height: 7.42 m
Data from the previous 72 hours. | See also: Recent months at Broome
Date/Time
WST
Temp
°C
App
Temp
°C
Dew
Point
Rel
Hum
%
Delta-T
°C
Wind Press
QNH
hPa
Press
MSL
hPa
Rain
since 9 am
mm
Dir
 
Spd
km/h
Gust
km/h
Spd
kts
Gust
kts
09/07:30pm 30.5 36.0 27.8 85 2.0 NW 15 19 8 10 1007.3 - 0.0
09/07:00pm 30.6 36.5 27.9 85 2.0 NW 13 20 7 11 1007.0 - 0.0
09/06:30pm 30.8 35.9 27.8 84 2.2 W 17 20 9 11 1006.3 - 0.0
09/06:00pm 31.5 36.5 27.7 80 2.8 WNW 17 24 9 13 1006.2 1006.1 0.0
09/05:30pm 31.8 36.3 27.7 79 3.0 WNW 20 24 11 13 1006.1 - 0.0
09/05:00pm 32.3 36.6 27.5 76 3.5 WNW 20 26 11 14 1006.0 - 0.0
09/04:30pm 32.6 36.5 27.5 74 3.7 NW 22 30 12 16 1006.0 - 0.0
09/04:00pm 33.0 37.5 27.7 73 3.9 W 20 28 11 15 1006.0 - 0.0
09/03:30pm 32.9 37.0 27.7 74 3.8 W 22 30 12 16 1005.7 - 0.0
09/03:00pm 33.6 38.2 27.9 72 4.2 WNW 20 24 11 13 1006.0 1005.9 0.0
09/02:30pm 33.5 36.8 27.2 69 4.6 W 24 32 13 17 1006.1 - 0.0
09/02:00pm 33.4 37.3 27.4 71 4.4 WNW 22 30 12 16 1006.5 - 0.0
09/01:30pm 34.0 37.0 26.2 63 5.6 W 22 28 12 15 1006.6 - 0.0
09/01:00pm 34.4 37.0 26.1 62 6.0 W 24 30 13 16 1007.0 - 0.0
09/12:30pm 34.2 36.7 25.4 60 6.3 W 22 28 12 15 1007.3 - 0.0
09/12:00pm 34.5 37.6 25.7 60 6.3 W 20 24 11 13 1007.8 1007.7 0.0
09/11:30am 34.0 37.4 25.3 60 6.2 W 17 22 9 12 1008.3 - 0.0
09/11:00am 34.4 37.4 24.6 56 6.9 W 17 20 9 11 1008.4 - 0.0
09/10:30am 33.9 37.4 25.5 61 6.0 W 17 20 9 11 1008.6 - 0.0
09/10:00am 34.3 38.8 25.8 61 6.1 W 13 20 7 11 1008.8 - 0.0
09/09:30am 34.2 38.7 25.8 61 6.0 W 13 17 7 9 1009.0 - 0.0
09/09:00am 34.9 37.2 20.6 43 9.6 SSW 9 17 5 9 1009.2 1009.1 0.2
09/08:30am 33.5 36.1 21.2 48 8.3 SSW 9 13 5 7 1009.3 - 0.0
09/08:00am 33.2 36.4 21.7 51 7.8 SSE 7 13 4 7 1009.4 - 0.0
09/07:30am 31.5 36.7 25.7 71 4.1 WSW 9 13 5 7 1008.9 - 0.0
09/07:00am 29.4 36.3 27.6 90 1.3 W 7 9 4 5 1008.8 - 0.0
09/06:30am 27.6 35.1 26.6 94 0.7 CALM 0 0 0 0 1008.9 - 0.0
09/06:00am 28.0 35.8 27.0 94 0.7 CALM 0 0 0 0 1008.4 1008.3 0.0
09/05:30am 27.3 34.7 26.5 95 0.6 CALM 0 0 0 0 1008.3 - 0.0
09/05:00am 27.5 34.3 26.7 95 0.6 N 4 7 2 4 1008.4 - 0.0
09/04:30am 28.1 34.6 27.1 94 0.7 N 7 9 4 5 1008.1 - 0.0
09/04:00am 29.5 37.8 27.7 90 1.3 CALM 0 6 0 3 1007.8 - 0.0
09/03:30am 29.5 36.0 27.6 89 1.4 S 9 11 5 6 1007.9 - 0.0
09/03:00am 29.4 35.7 27.3 88 1.5 WSW 9 15 5 8 1007.6 1007.5 0.0
09/02:30am 29.5 36.3 27.3 88 1.6 SSW 6 13 3 7 1007.9 - 0.0
09/02:00am 29.3 35.6 27.4 89 1.4 S 9 13 5 7 1007.8 - 0.0
09/01:30am 29.5 36.0 27.6 89 1.4 W 9 11 5 6 1007.2 - 0.0
09/01:00am 29.4 36.0 27.7 90 1.2 W 9 11 5 6 1007.5 - 0.0
09/12:30am 29.7 36.3 27.8 89 1.4 W 9 13 5 7 1007.8 - 0.0
09/12:00am 29.6 35.8 27.7 89 1.4 W 11 13 6 7 1008.0 1007.9 0.0
 
Date/Time
WST
Temp
°C
App
Temp
°C
Dew
Point
Rel
Hum
%
Delta-T
°C
Wind Press
QNH
hPa
Press
MSL
hPa
Rain
since 9 am
mm
Dir
 
Spd
km/h
Gust
km/h
Spd
kts
Gust
kts
08/11:30pm 29.6 36.0 27.5 88 1.5 WNW 9 15 5 8 1008.1 - 0.0
08/11:00pm 29.7 35.6 27.3 87 1.7 W 11 15 6 8 1008.4 - 0.0
08/10:30pm 29.8 36.1 27.3 86 1.8 WNW 9 13 5 7 1008.4 - 0.0
08/10:00pm 29.9 36.2 27.3 86 1.9 WNW 9 15 5 8 1008.4 - 0.0
08/09:30pm 30.0 35.7 27.1 84 2.1 WNW 11 15 6 8 1008.2 - 0.0
08/09:00pm 30.0 35.7 27.1 84 2.1 NW 11 15 6 8 1007.9 1007.8 0.0
08/08:30pm 30.2 36.4 27.2 84 2.2 WNW 9 13 5 7 1007.7 - 0.0
08/08:00pm 30.3 36.4 27.1 83 2.3 NW 9 13 5 7 1007.4 - 0.0
08/07:30pm 30.4 36.6 27.2 83 2.3 WNW 9 13 5 7 1007.1 - 0.0
08/07:00pm 30.5 36.2 27.0 81 2.5 WNW 11 15 6 8 1006.6 - 0.0
08/06:30pm 30.8 36.2 27.1 80 2.7 WNW 13 19 7 10 1006.4 - 0.0
08/06:00pm 31.6 36.3 26.7 75 3.5 WNW 15 20 8 11 1006.1 1006.0 0.0
08/05:30pm 32.3 36.0 26.6 72 4.1 WSW 20 26 11 14 1005.6 - 0.0
08/05:00pm 32.8 36.6 26.4 69 4.6 W 19 26 10 14 1005.4 - 0.0
08/04:30pm 32.9 35.9 26.1 67 4.9 W 22 28 12 15 1005.2 - 0.0
08/04:00pm 33.5 36.5 25.5 63 5.7 W 20 26 11 14 1005.2 - 0.0
08/03:30pm 34.4 36.9 24.8 57 6.8 W 20 30 11 16 1005.2 - 0.0
08/03:00pm 34.1 35.7 24.5 57 6.8 W 24 32 13 17 1005.4 1005.3 0.0
08/02:30pm 34.2 36.5 25.1 59 6.5 W 22 32 12 17 1005.7 - 0.0
08/02:00pm 34.1 37.0 25.4 60 6.2 W 20 28 11 15 1006.1 - 0.0
08/01:30pm 34.0 36.5 25.4 61 6.1 W 22 28 12 15 1006.5 - 0.0
08/01:00pm 34.0 36.7 25.1 59 6.3 W 20 26 11 14 1006.8 - 0.0
08/12:30pm 33.8 37.0 25.5 62 5.9 W 19 24 10 13 1007.2 - 0.0
08/12:00pm 33.7 36.8 24.8 59 6.3 W 17 22 9 12 1007.9 1007.8 0.0
08/11:30am 33.3 37.2 25.4 63 5.6 W 15 20 8 11 1008.5 - 0.0
08/11:00am 32.8 36.8 25.6 66 5.1 W 15 20 8 11 1008.7 - 0.0
08/10:30am 32.9 36.6 25.8 66 5.1 W 17 20 9 11 1009.0 - 0.0
08/10:00am 33.2 37.0 25.3 63 5.6 W 15 20 8 11 1009.1 - 0.0
08/09:30am 32.8 37.2 25.0 63 5.5 W 11 17 6 9 1009.2 - 0.0
08/09:00am 32.4 36.0 24.4 62 5.6 W 13 19 7 10 1009.2 1009.1 0.0
08/08:30am 32.2 34.9 24.2 62 5.6 WSW 17 22 9 12 1009.2 - 0.0
08/08:00am 31.3 35.7 25.7 72 4.0 SSW 13 20 7 11 1009.4 - 0.0
08/07:30am 30.6 35.3 26.1 77 3.2 S 13 19 7 10 1009.4 - 0.0
08/07:00am 30.3 34.8 26.4 79 2.8 SSW 15 20 8 11 1009.3 - 0.0
08/06:30am 29.6 35.5 26.2 82 2.4 SSW 7 11 4 6 1009.0 - 0.0
08/06:00am 28.8 34.6 26.0 85 2.0 SSW 7 11 4 6 1008.8 1008.7 0.0
08/05:30am 28.4 33.7 25.9 86 1.8 SW 9 13 5 7 1008.6 - 0.0
08/05:00am 27.4 33.5 25.6 90 1.3 NNW 4 7 2 4 1008.5 - 0.0
08/04:30am 27.5 33.4 25.4 88 1.5 N 4 7 2 4 1008.5 - 0.0
08/04:00am 28.8 32.9 25.2 81 2.5 SW 13 19 7 10 1008.3 - 0.0
08/03:30am 29.0 34.1 25.5 81 2.5 SW 9 13 5 7 1008.3 - 0.0
08/03:00am 29.1 35.1 26.0 83 2.2 S 6 15 3 8 1008.7 1008.6 0.0
08/02:30am 28.8 34.8 26.4 87 1.7 SSW 7 13 4 7 1008.7 - 0.0
08/02:00am 28.8 36.2 26.4 87 1.7 CALM 0 0 0 0 1008.5 - 0.0
08/01:30am 29.2 35.3 26.5 85 1.9 W 7 11 4 6 1008.3 - 0.0
08/01:00am 29.1 35.3 26.7 87 1.7 W 7 11 4 6 1008.6 - 0.0
08/12:30am 29.4 35.2 26.6 85 2.0 W 9 13 5 7 1008.8 - 0.0
08/12:00am 29.4 35.4 26.9 86 1.8 W 9 13 5 7 1009.2 1009.1 0.0
 
Date/Time
WST
Temp
°C
App
Temp
°C
Dew
Point
Rel
Hum
%
Delta-T
°C
Wind Press
QNH
hPa
Press
MSL
hPa
Rain
since 9 am
mm
Dir
 
Spd
km/h
Gust
km/h
Spd
kts
Gust
kts
07/11:30pm 29.7 35.4 27.1 86 1.9 W 11 15 6 8 1009.7 - 0.0
07/11:00pm 29.8 35.1 27.0 85 2.0 W 13 17 7 9 1009.9 - 0.0
07/10:30pm 29.7 34.6 26.9 85 2.0 W 15 20 8 11 1009.9 - 0.0
07/10:00pm 29.8 35.9 27.0 85 2.0 WNW 9 13 5 7 1010.0 - 0.0
07/09:30pm 30.1 35.3 26.9 83 2.3 W 13 17 7 9 1009.8 - 0.0
07/09:00pm 30.3 36.0 27.0 82 2.4 W 11 17 6 9 1009.4 1009.3 0.0
07/08:30pm 30.4 35.2 26.3 79 2.9 W 13 19 7 10 1009.0 - 0.0
07/08:00pm 30.7 35.4 26.1 76 3.3 W 13 19 7 10 1008.7 - 0.0
07/07:30pm 30.7 35.2 25.8 75 3.5 W 13 19 7 10 1008.2 - 0.0
07/07:00pm 30.7 34.4 25.2 72 3.9 W 15 19 8 10 1007.6 - 0.0
07/06:30pm 31.2 34.8 25.0 69 4.4 W 15 20 8 11 1007.2 - 0.0
07/06:00pm 31.5 35.2 25.1 69 4.5 W 15 20 8 11 1006.9 1006.8 0.0
07/05:30pm 31.7 34.7 25.2 68 4.6 W 19 28 10 15 1006.4 - 0.0
07/05:00pm 32.2 35.1 25.4 67 4.8 WNW 20 26 11 14 1006.0 - 0.0
07/04:30pm 31.9 34.6 25.7 69 4.4 WNW 22 28 12 15 1005.8 - 0.0
07/04:00pm 32.3 35.4 25.7 68 4.7 WNW 20 30 11 16 1005.9 - 0.0
07/03:30pm 34.3 35.3 24.7 57 6.8 WSW 28 35 15 19 1005.6 - 0.0
07/03:00pm 33.9 34.9 24.1 56 6.9 W 26 35 14 19 1005.9 1005.8 0.0
07/02:30pm 33.9 35.1 23.9 56 7.0 WSW 24 32 13 17 1006.2 - 0.0
07/02:00pm 33.2 35.4 26.1 66 5.1 W 26 32 14 17 1006.0 - 0.0
07/01:30pm 33.8 35.8 25.2 60 6.1 W 24 32 13 17 1006.5 - 0.0
07/01:00pm 33.5 35.6 25.4 62 5.8 W 24 32 13 17 1006.9 - 0.0
07/12:30pm 33.1 35.9 26.4 68 4.8 W 24 30 13 16 1007.3 - 0.0
07/12:00pm 33.0 36.2 25.9 66 5.1 W 20 26 11 14 1007.6 1007.5 0.0
07/11:30am 33.2 35.7 24.4 60 6.2 W 19 24 10 13 1007.9 - 0.0
07/11:00am 33.0 36.1 24.8 62 5.8 W 17 22 9 12 1008.2 - 0.0
07/10:30am 32.9 36.7 25.9 66 5.0 W 17 22 9 12 1008.3 - 0.0
07/10:00am 32.8 37.0 26.0 67 4.9 W 15 19 8 10 1008.4 - 0.0
07/09:30am 32.5 36.8 25.5 66 5.0 W 13 17 7 9 1008.5 - 0.0
07/09:00am 32.5 37.5 24.8 64 5.4 SW 7 13 4 7 1008.6 1008.5 0.0
07/08:30am 31.2 36.5 25.9 73 3.8 SSW 9 13 5 7 1008.3 - 0.0
07/08:00am 31.0 38.4 26.4 76 3.3 CALM 0 0 0 0 1008.3 - 0.0
07/07:30am 30.1 37.4 26.3 80 2.7 CALM 0 0 0 0 1008.0 - 0.0
07/07:00am 29.5 37.0 26.6 84 2.1 CALM 0 0 0 0 1007.9 - 0.0
07/06:30am 29.1 36.5 26.4 85 1.9 CALM 0 0 0 0 1007.7 - 0.0
07/06:00am 28.4 34.5 26.2 88 1.6 S 6 7 3 4 1007.5 1007.4 0.0
07/05:30am 28.4 34.2 26.0 87 1.7 S 7 11 4 6 1007.3 - 0.0
07/05:00am 28.5 33.8 25.8 85 1.9 S 9 13 5 7 1007.2 - 0.0
07/04:30am 28.8 33.4 25.4 82 2.4 SSW 11 17 6 9 1007.1 - 0.0
07/04:00am 28.7 33.1 25.0 80 2.6 SSW 11 17 6 9 1007.1 - 0.0
07/03:30am 28.7 32.9 25.3 82 2.4 SSW 13 17 7 9 1007.0 - 0.0
07/03:00am 28.8 33.0 25.4 82 2.4 SSW 13 17 7 9 1006.8 1006.7 0.0
07/02:30am 28.8 33.1 25.5 82 2.3 SW 13 15 7 8 1006.8 - 0.0
07/02:00am 28.9 33.3 25.7 83 2.3 SW 13 15 7 8 1006.6 - 0.0
07/01:30am 29.0 33.5 25.8 83 2.3 WSW 13 17 7 9 1006.8 - 0.0
07/01:00am 29.0 33.9 25.8 83 2.3 WSW 11 15 6 8 1007.1 - 0.0
07/12:30am 29.1 34.0 25.9 83 2.3 W 11 17 6 9 1007.2 - 0.0
07/12:00am 29.1 33.7 25.9 83 2.3 W 13 17 7 9 1007.3 1007.2 0.0
 
Date/Time
WST
Temp
°C
App
Temp
°C
Dew
Point
Rel
Hum
%
Delta-T
°C
Wind Press
QNH
hPa
Press
MSL
hPa
Rain
since 9 am
mm
Dir
 
Spd
km/h
Gust
km/h
Spd
kts
Gust
kts
06/11:30pm 28.9 34.2 25.8 83 2.2 W 9 13 5 7 1007.5 - 0.0
06/11:00pm 28.9 35.7 25.6 82 2.3 CALM 0 0 0 0 1008.0 - 0.0
06/10:30pm 29.0 35.8 25.6 82 2.4 CALM 0 0 0 0 1008.2 - 0.0
06/10:00pm 29.1 34.2 25.6 81 2.5 WNW 9 13 5 7 1008.0 - 0.0
06/09:30pm 29.2 33.4 25.4 80 2.7 W 13 19 7 10 1008.0 - 0.0
06/09:00pm 29.3 33.6 25.5 80 2.7 WNW 13 19 7 10 1007.7 1007.6 0.0
06/08:30pm 29.3 33.6 25.5 80 2.7 W 13 19 7 10 1007.4 - 0.0
06/08:00pm 29.4 33.6 25.3 78 2.9 WNW 13 19 7 10 1006.8 - 0.0

Other Formats:

Comma delimited format used in spreadsheet applications
http://www.bom.gov.au/fwo/IDW60801/IDW60801.94203.axf

JavaScript Object Notation format (JSON) in row-major order
http://www.bom.gov.au/fwo/IDW60801/IDW60801.94203.json